sensor_id;sensor_type;location;lat;lon;timestamp;pressure;altitude;pressure_sealevel;temperature;humidity
50125;BME280;36023;48.670;6.184;2022-09-09T00:01:52;98590.97;;;24.01;42.87
50125;BME280;36023;48.670;6.184;2022-09-09T00:04:26;98583.03;;;24.01;42.88
50125;BME280;36023;48.670;6.184;2022-09-09T00:09:44;98581.34;;;24.00;42.98
50125;BME280;36023;48.670;6.184;2022-09-09T00:12:16;98586.63;;;24.00;42.85
50125;BME280;36023;48.670;6.184;2022-09-09T00:17:16;98584.00;;;24.00;42.99
50125;BME280;36023;48.670;6.184;2022-09-09T00:19:45;98579.53;;;24.01;43.08
50125;BME280;36023;48.670;6.184;2022-09-09T00:22:33;98580.38;;;24.01;43.01
50125;BME280;36023;48.670;6.184;2022-09-09T00:25:11;98570.63;;;24.02;42.73
50125;BME280;36023;48.670;6.184;2022-09-09T00:27:45;98563.69;;;24.01;42.98
50125;BME280;36023;48.670;6.184;2022-09-09T00:32:36;98568.97;;;24.01;42.93
50125;BME280;36023;48.670;6.184;2022-09-09T00:35:15;98568.97;;;24.01;42.98
50125;BME280;36023;48.670;6.184;2022-09-09T00:37:43;98568.00;;;24.02;42.76
50125;BME280;36023;48.670;6.184;2022-09-09T00:48:09;98570.91;;;23.99;42.93
50125;BME280;36023;48.670;6.184;2022-09-09T00:58:02;98574.63;;;23.96;42.88
50125;BME280;36023;48.670;6.184;2022-09-09T01:00:29;98573.78;;;23.96;42.79
50125;BME280;36023;48.670;6.184;2022-09-09T01:08:11;98561.53;;;23.95;42.70
50125;BME280;36023;48.670;6.184;2022-09-09T01:10:49;98559.84;;;23.94;42.88
50125;BME280;36023;48.670;6.184;2022-09-09T01:13:24;98550.13;;;23.94;42.79
50125;BME280;36023;48.670;6.184;2022-09-09T01:15:52;98554.56;;;23.94;42.70
50125;BME280;36023;48.670;6.184;2022-09-09T01:18:21;98554.56;;;23.94;42.88
50125;BME280;36023;48.670;6.184;2022-09-09T01:28:51;98554.69;;;23.92;42.53
50125;BME280;36023;48.670;6.184;2022-09-09T01:31:31;98560.00;;;23.92;42.65
50125;BME280;36023;48.670;6.184;2022-09-09T01:33:58;98553.88;;;23.92;42.66
50125;BME280;36023;48.670;6.184;2022-09-09T01:36:26;98555.53;;;23.93;42.70
50125;BME280;36023;48.670;6.184;2022-09-09T01:38:56;98551.22;;;23.92;42.62
50125;BME280;36023;48.670;6.184;2022-09-09T01:41:22;98558.31;;;23.91;42.81
50125;BME280;36023;48.670;6.184;2022-09-09T01:43:55;98557.34;;;23.92;42.78
50125;BME280;36023;48.670;6.184;2022-09-09T01:46:22;98555.66;;;23.91;42.80
50125;BME280;36023;48.670;6.184;2022-09-09T01:48:48;98553.88;;;23.92;42.65
50125;BME280;36023;48.670;6.184;2022-09-09T01:51:14;98549.41;;;23.92;42.72
50125;BME280;36023;48.670;6.184;2022-09-09T01:53:40;98552.19;;;23.90;42.54
50125;BME280;36023;48.670;6.184;2022-09-09T01:59:07;98552.19;;;23.90;42.58
50125;BME280;36023;48.670;6.184;2022-09-09T02:04:03;98553.88;;;23.92;42.60
50125;BME280;36023;48.670;6.184;2022-09-09T02:06:35;98553.88;;;23.92;42.66
50125;BME280;36023;48.670;6.184;2022-09-09T02:09:12;98549.41;;;23.92;42.65
50125;BME280;36023;48.670;6.184;2022-09-09T02:11:39;98556.50;;;23.92;42.80
50125;BME280;36023;48.670;6.184;2022-09-09T02:14:14;98559.03;;;23.93;42.77
50125;BME280;36023;48.670;6.184;2022-09-09T02:16:46;98558.19;;;23.93;42.67
50125;BME280;36023;48.670;6.184;2022-09-09T02:19:25;98555.53;;;23.93;42.77
50125;BME280;36023;48.670;6.184;2022-09-09T02:22:08;98564.31;;;23.93;42.86
50125;BME280;36023;48.670;6.184;2022-09-09T02:24:35;98566.13;;;23.93;42.55
50125;BME280;36023;48.670;6.184;2022-09-09T02:27:19;98565.28;;;23.92;42.66
50125;BME280;36023;48.670;6.184;2022-09-09T02:29:47;98568.75;;;23.93;42.60
50125;BME280;36023;48.670;6.184;2022-09-09T02:32:17;98565.28;;;23.92;42.80
50125;BME280;36023;48.670;6.184;2022-09-09T02:34:46;98567.94;;;23.92;42.80
50125;BME280;36023;48.670;6.184;2022-09-09T02:37:13;98571.41;;;23.93;42.82
50125;BME280;36023;48.670;6.184;2022-09-09T02:39:44;98563.59;;;23.91;42.87
50125;BME280;36023;48.670;6.184;2022-09-09T02:42:13;98569.72;;;23.92;42.58
50125;BME280;36023;48.670;6.184;2022-09-09T02:44:41;98569.72;;;23.92;42.80
50125;BME280;36023;48.670;6.184;2022-09-09T02:50:02;98566.25;;;23.91;42.80
50125;BME280;36023;48.670;6.184;2022-09-09T02:52:54;98568.91;;;23.91;42.61
50125;BME280;36023;48.670;6.184;2022-09-09T02:58:02;98565.41;;;23.90;42.63
50125;BME280;36023;48.670;6.184;2022-09-09T03:00:32;98569.03;;;23.89;42.68
50125;BME280;36023;48.670;6.184;2022-09-09T03:03:00;98566.38;;;23.89;42.58
50125;BME280;36023;48.670;6.184;2022-09-09T03:05:26;98572.63;;;23.88;42.79
50125;BME280;36023;48.670;6.184;2022-09-09T03:07:52;98569.97;;;23.88;42.67
50125;BME280;36023;48.670;6.184;2022-09-09T03:10:19;98568.28;;;23.87;42.67
50125;BME280;36023;48.670;6.184;2022-09-09T03:12:45;98570.94;;;23.87;42.88
50125;BME280;36023;48.670;6.184;2022-09-09T03:15:11;98566.63;;;23.86;42.52
50125;BME280;36023;48.670;6.184;2022-09-09T03:17:38;98574.56;;;23.86;42.58
50125;BME280;36023;48.670;6.184;2022-09-09T03:20:04;98576.38;;;23.86;42.86
50125;BME280;36023;48.670;6.184;2022-09-09T03:22:30;98575.53;;;23.85;42.59
50125;BME280;36023;48.670;6.184;2022-09-09T03:24:58;98579.97;;;23.85;42.84
50125;BME280;36023;48.670;6.184;2022-09-09T03:27:25;98575.53;;;23.85;42.92
50125;BME280;36023;48.670;6.184;2022-09-09T03:29:51;98578.16;;;23.85;42.56
50125;BME280;36023;48.670;6.184;2022-09-09T03:32:20;98576.50;;;23.84;42.58
50125;BME280;36023;48.670;6.184;2022-09-09T03:34:47;98582.63;;;23.85;42.82
50125;BME280;36023;48.670;6.184;2022-09-09T03:37:18;98579.13;;;23.84;42.81
50125;BME280;36023;48.670;6.184;2022-09-09T03:39:44;98574.81;;;23.83;42.58
50125;BME280;36023;48.670;6.184;2022-09-09T03:42:12;98582.75;;;23.83;42.83
50125;BME280;36023;48.670;6.184;2022-09-09T03:44:37;98580.94;;;23.84;42.57
50125;BME280;36023;48.670;6.184;2022-09-09T03:47:03;98579.28;;;23.83;42.73
50125;BME280;36023;48.670;6.184;2022-09-09T03:49:28;98581.91;;;23.83;42.63
50125;BME280;36023;48.670;6.184;2022-09-09T03:51:55;98577.47;;;23.83;42.97
50125;BME280;36023;48.670;6.184;2022-09-09T03:54:23;98576.63;;;23.83;42.90
50125;BME280;36023;48.670;6.184;2022-09-09T03:56:48;98573.16;;;23.82;42.62
50125;BME280;36023;48.670;6.184;2022-09-09T03:59:14;98571.34;;;23.83;42.56
50125;BME280;36023;48.670;6.184;2022-09-09T04:01:41;98570.59;;;23.81;42.73
50125;BME280;36023;48.670;6.184;2022-09-09T04:04:06;98570.59;;;23.81;42.76
50125;BME280;36023;48.670;6.184;2022-09-09T04:06:33;98570.59;;;23.81;42.63
50125;BME280;36023;48.670;6.184;2022-09-09T04:08:59;98567.97;;;23.81;42.64
50125;BME280;36023;48.670;6.184;2022-09-09T04:11:25;98572.41;;;23.80;42.84
50125;BME280;36023;48.670;6.184;2022-09-09T04:13:54;98567.13;;;23.80;42.76
50125;BME280;36023;48.670;6.184;2022-09-09T04:16:19;98563.63;;;23.80;42.54
50125;BME280;36023;48.670;6.184;2022-09-09T04:18:46;98567.13;;;23.80;42.74
50125;BME280;36023;48.670;6.184;2022-09-09T04:21:13;98569.75;;;23.80;42.82
50125;BME280;36023;48.670;6.184;2022-09-09T04:23:39;98570.59;;;23.81;42.63
50125;BME280;36023;48.670;6.184;2022-09-09T04:26:05;98567.13;;;23.80;42.77
50125;BME280;36023;48.670;6.184;2022-09-09T04:28:34;98575.06;;;23.80;42.66
50125;BME280;36023;48.670;6.184;2022-09-09T04:31:07;98574.13;;;23.81;42.80
50125;BME280;36023;48.670;6.184;2022-09-09T04:33:35;98575.88;;;23.81;43.05
50125;BME280;36023;48.670;6.184;2022-09-09T04:36:03;98572.41;;;23.80;42.73
50125;BME280;36023;48.670;6.184;2022-09-09T04:38:29;98577.69;;;23.80;42.64
50125;BME280;36023;48.670;6.184;2022-09-09T04:40:55;98578.53;;;23.81;42.80
50125;BME280;36023;48.670;6.184;2022-09-09T04:43:21;98580.34;;;23.80;43.02
50125;BME280;36023;48.670;6.184;2022-09-09T04:45:48;98569.75;;;23.80;42.79
50125;BME280;36023;48.670;6.184;2022-09-09T04:48:14;98578.66;;;23.79;43.00
50125;BME280;36023;48.670;6.184;2022-09-09T04:50:40;98576.03;;;23.79;43.13
50125;BME280;36023;48.670;6.184;2022-09-09T04:53:06;98573.38;;;23.79;42.96
50125;BME280;36023;48.670;6.184;2022-09-09T04:55:35;98573.38;;;23.79;43.13
50125;BME280;36023;48.670;6.184;2022-09-09T04:58:04;98573.38;;;23.79;43.05
50125;BME280;36023;48.670;6.184;2022-09-09T05:00:31;98578.66;;;23.79;43.08
50125;BME280;36023;48.670;6.184;2022-09-09T05:02:56;98575.19;;;23.79;42.89
50125;BME280;36023;48.670;6.184;2022-09-09T05:05:23;98577.81;;;23.79;43.02
50125;BME280;36023;48.670;6.184;2022-09-09T05:07:51;98579.63;;;23.78;43.18
50125;BME280;36023;48.670;6.184;2022-09-09T05:10:17;98583.94;;;23.79;43.15
50125;BME280;36023;48.670;6.184;2022-09-09T05:12:51;98584.94;;;23.78;43.12
50125;BME280;36023;48.670;6.184;2022-09-09T05:15:18;98582.41;;;23.77;43.04
50125;BME280;36023;48.670;6.184;2022-09-09T05:17:46;98586.88;;;23.76;43.19
50125;BME280;36023;48.670;6.184;2022-09-09T05:20:13;98586.88;;;23.76;43.20
50125;BME280;36023;48.670;6.184;2022-09-09T05:22:38;98582.53;;;23.75;43.21
50125;BME280;36023;48.670;6.184;2022-09-09T05:25:04;98583.50;;;23.74;42.88
50125;BME280;36023;48.670;6.184;2022-09-09T05:27:29;98593.25;;;23.74;43.00
50125;BME280;36023;48.670;6.184;2022-09-09T05:29:59;98593.25;;;23.74;43.13
50125;BME280;36023;48.670;6.184;2022-09-09T05:32:25;98593.25;;;23.74;42.92
50125;BME280;36023;48.670;6.184;2022-09-09T05:34:52;98599.38;;;23.74;43.19
50125;BME280;36023;48.670;6.184;2022-09-09T05:37:18;98596.00;;;23.72;43.08
50125;BME280;36023;48.670;6.184;2022-09-09T05:39:44;98600.31;;;23.73;43.24
50125;BME280;36023;48.670;6.184;2022-09-09T05:42:10;98598.53;;;23.74;42.92
50125;BME280;36023;48.670;6.184;2022-09-09T05:44:36;98593.34;;;23.72;43.02
50125;BME280;36023;48.670;6.184;2022-09-09T05:47:02;98606.56;;;23.72;43.04
50125;BME280;36023;48.670;6.184;2022-09-09T05:49:28;98598.63;;;23.72;42.97
50125;BME280;36023;48.670;6.184;2022-09-09T05:51:54;98602.25;;;23.71;43.17
50125;BME280;36023;48.670;6.184;2022-09-09T05:54:20;98606.56;;;23.72;43.00
50125;BME280;36023;48.670;6.184;2022-09-09T05:56:49;98607.53;;;23.71;43.33
50125;BME280;36023;48.670;6.184;2022-09-09T05:59:16;98609.34;;;23.71;43.09
50125;BME280;36023;48.670;6.184;2022-09-09T06:01:42;98611.03;;;23.72;43.26
50125;BME280;36023;48.670;6.184;2022-09-09T06:04:14;98611.16;;;23.70;43.30
50125;BME280;36023;48.670;6.184;2022-09-09T06:06:40;98624.25;;;23.72;43.26
50125;BME280;36023;48.670;6.184;2022-09-09T06:09:18;98623.19;;;23.74;43.52
50125;BME280;36023;48.670;6.184;2022-09-09T06:11:44;98627.50;;;23.75;43.40
50125;BME280;36023;48.670;6.184;2022-09-09T06:14:10;98616.91;;;23.75;43.87
50125;BME280;36023;48.670;6.184;2022-09-09T06:16:53;98617.88;;;23.74;43.83
50125;BME280;36023;48.670;6.184;2022-09-09T06:19:25;98633.63;;;23.76;44.01
50125;BME280;36023;48.670;6.184;2022-09-09T06:21:53;98628.34;;;23.76;43.82
50125;BME280;36023;48.670;6.184;2022-09-09T06:24:18;98632.78;;;23.75;43.85
50125;BME280;36023;48.670;6.184;2022-09-09T06:26:45;98623.03;;;23.76;43.82
50125;BME280;36023;48.670;6.184;2022-09-09T06:29:14;98627.50;;;23.75;44.16
50125;BME280;36023;48.670;6.184;2022-09-09T06:31:41;98620.53;;;23.74;44.39
50125;BME280;36023;48.670;6.184;2022-09-09T06:34:13;98623.03;;;23.76;44.35
50125;BME280;36023;48.670;6.184;2022-09-09T06:36:43;98624.84;;;23.75;44.10
50125;BME280;36023;48.670;6.184;2022-09-09T06:39:11;98632.78;;;23.75;44.47
50125;BME280;36023;48.670;6.184;2022-09-09T06:41:37;98625.81;;;23.74;44.29
50125;BME280;36023;48.670;6.184;2022-09-09T06:44:05;98635.56;;;23.74;44.51
50125;BME280;36023;48.670;6.184;2022-09-09T06:46:38;98630.28;;;23.74;44.30
50125;BME280;36023;48.670;6.184;2022-09-09T06:49:05;98623.19;;;23.74;44.52
50125;BME280;36023;48.670;6.184;2022-09-09T06:51:32;98639.97;;;23.73;44.48
50125;BME280;36023;48.670;6.184;2022-09-09T06:53:59;98632.03;;;23.73;44.29
50125;BME280;36023;48.670;6.184;2022-09-09T06:56:29;98634.09;;;23.70;44.33
50125;BME280;36023;48.670;6.184;2022-09-09T06:58:57;98630.50;;;23.59;44.28
50125;BME280;36023;48.670;6.184;2022-09-09T07:01:31;98628.84;;;23.47;44.46
50125;BME280;36023;48.670;6.184;2022-09-09T07:03:59;98625.00;;;23.40;44.56
50125;BME280;36023;48.670;6.184;2022-09-09T07:06:27;98637.75;;;23.35;44.62
50125;BME280;36023;48.670;6.184;2022-09-09T07:08:54;98641.47;;;23.32;44.94
50125;BME280;36023;48.670;6.184;2022-09-09T07:11:22;98640.03;;;23.28;44.67
50125;BME280;36023;48.670;6.184;2022-09-09T07:13:48;98642.31;;;23.22;44.75
50125;BME280;36023;48.670;6.184;2022-09-09T07:16:16;98643.75;;;23.15;44.81
50125;BME280;36023;48.670;6.184;2022-09-09T07:18:41;98650.22;;;23.11;44.94
50125;BME280;36023;48.670;6.184;2022-09-09T07:21:08;98654.22;;;23.05;44.57
50125;BME280;36023;48.670;6.184;2022-09-09T07:23:34;98649.16;;;23.02;44.71
50125;BME280;36023;48.670;6.184;2022-09-09T07:26:02;98658.16;;;22.99;44.76
50125;BME280;36023;48.670;6.184;2022-09-09T07:28:28;98660.09;;;22.97;44.88
50125;BME280;36023;48.670;6.184;2022-09-09T07:30:56;98665.72;;;22.93;44.91
50125;BME280;36023;48.670;6.184;2022-09-09T07:33:25;98659.59;;;22.92;45.14
50125;BME280;36023;48.670;6.184;2022-09-09T07:35:51;98656.13;;;22.92;44.83
50125;BME280;36023;48.670;6.184;2022-09-09T07:38:17;98654.66;;;22.88;44.73
50125;BME280;36023;48.670;6.184;2022-09-09T07:40:44;98657.44;;;22.86;45.09
50125;BME280;36023;48.670;6.184;2022-09-09T07:43:10;98656.69;;;22.84;44.97
50125;BME280;36023;48.670;6.184;2022-09-09T07:45:36;98658.59;;;22.82;44.89
50125;BME280;36023;48.670;6.184;2022-09-09T07:48:02;98650.06;;;22.78;44.96
50125;BME280;36023;48.670;6.184;2022-09-09T07:50:29;98660.88;;;22.75;44.94
50125;BME280;36023;48.670;6.184;2022-09-09T07:52:55;98652.22;;;22.73;45.08
50125;BME280;36023;48.670;6.184;2022-09-09T07:55:21;98648.84;;;22.71;45.07
50125;BME280;36023;48.670;6.184;2022-09-09T07:57:46;98663.75;;;22.72;45.10
50125;BME280;36023;48.670;6.184;2022-09-09T08:00:14;98654.25;;;22.70;45.15
50125;BME280;36023;48.670;6.184;2022-09-09T08:02:43;98655.22;;;22.69;45.17
50125;BME280;36023;48.670;6.184;2022-09-09T08:05:11;98657.84;;;22.69;45.06
50125;BME280;36023;48.670;6.184;2022-09-09T08:07:39;98663.00;;;22.70;45.07
50125;BME280;36023;48.670;6.184;2022-09-09T08:10:05;98659.66;;;22.68;45.19
50125;BME280;36023;48.670;6.184;2022-09-09T08:12:34;98654.38;;;22.68;45.26
50125;BME280;36023;48.670;6.184;2022-09-09T08:15:02;98655.94;;;22.71;45.49
50125;BME280;36023;48.670;6.184;2022-09-09T08:17:31;98656.88;;;22.70;45.77
50125;BME280;36023;48.670;6.184;2022-09-09T08:20:02;98662.28;;;22.68;45.53
50125;BME280;36023;48.670;6.184;2022-09-09T08:22:31;98666.84;;;22.66;46.03
50125;BME280;36023;48.670;6.184;2022-09-09T08:24:57;98665.91;;;22.67;45.88
50125;BME280;36023;48.670;6.184;2022-09-09T08:27:23;98673.94;;;22.66;46.13
50125;BME280;36023;48.670;6.184;2022-09-09T08:29:50;98670.47;;;22.65;46.05
50125;BME280;36023;48.670;6.184;2022-09-09T08:32:17;98667.06;;;22.63;46.05
50125;BME280;36023;48.670;6.184;2022-09-09T08:34:46;98664.44;;;22.63;46.19
50125;BME280;36023;48.670;6.184;2022-09-09T08:37:15;98668.03;;;22.62;46.30
50125;BME280;36023;48.670;6.184;2022-09-09T08:39:43;98663.59;;;22.63;46.23
50125;BME280;36023;48.670;6.184;2022-09-09T08:48:01;98667.31;;;22.60;46.16
50125;BME280;36023;48.670;6.184;2022-09-09T08:52:58;98657.22;;;22.54;46.28
50125;BME280;36023;48.670;6.184;2022-09-09T08:55:28;98662.28;;;22.57;46.27
50125;BME280;36023;48.670;6.184;2022-09-09T08:58:00;98664.03;;;22.57;46.41
50125;BME280;36023;48.670;6.184;2022-09-09T09:00:33;98664.91;;;22.57;46.26
50125;BME280;36023;48.670;6.184;2022-09-09T09:13:13;98673.75;;;22.45;46.81
50125;BME280;36023;48.670;6.184;2022-09-09T09:15:39;98674.72;;;22.44;46.72
50125;BME280;36023;48.670;6.184;2022-09-09T09:18:08;98679.16;;;22.43;47.06
50125;BME280;36023;48.670;6.184;2022-09-09T09:21:21;98675.44;;;22.46;46.93
50125;BME280;36023;48.670;6.184;2022-09-09T09:23:33;98669.19;;;22.47;47.09
50125;BME280;36023;48.670;6.184;2022-09-09T09:26:06;98674.47;;;22.47;47.00
50125;BME280;36023;48.670;6.184;2022-09-09T09:28:33;98676.16;;;22.48;47.09
50125;BME280;36023;48.670;6.184;2022-09-09T09:31:06;98677.22;;;22.45;46.83
50125;BME280;36023;48.670;6.184;2022-09-09T09:33:51;98682.75;;;22.42;47.12
50125;BME280;36023;48.670;6.184;2022-09-09T09:36:21;98694.34;;;22.40;46.99
50125;BME280;36023;48.670;6.184;2022-09-09T09:38:58;98680.44;;;22.38;47.48
50125;BME280;36023;48.670;6.184;2022-09-09T09:41:36;98676.00;;;22.38;47.62
50125;BME280;36023;48.670;6.184;2022-09-09T09:44:04;98673.25;;;22.40;47.68
50125;BME280;36023;48.670;6.184;2022-09-09T09:46:31;98676.00;;;22.38;47.74
50125;BME280;36023;48.670;6.184;2022-09-09T09:49:08;98664.84;;;22.35;47.81
50125;BME280;36023;48.670;6.184;2022-09-09T09:51:35;98666.66;;;22.34;47.89
50125;BME280;36023;48.670;6.184;2022-09-09T09:54:26;98668.53;;;22.32;47.90
50125;BME280;36023;48.670;6.184;2022-09-09T09:56:51;98665.91;;;22.32;47.78
50125;BME280;36023;48.670;6.184;2022-09-09T09:59:19;98659.56;;;22.35;47.64
50125;BME280;36023;48.670;6.184;2022-09-09T10:01:46;98669.88;;;22.38;47.51
50125;BME280;36023;48.670;6.184;2022-09-09T10:04:17;98660.88;;;22.40;47.40
50125;BME280;36023;48.670;6.184;2022-09-09T10:06:44;98664.16;;;22.44;47.26
50125;BME280;36023;48.670;6.184;2022-09-09T10:12:00;98654.09;;;22.49;47.11
50125;BME280;36023;48.670;6.184;2022-09-09T10:14:49;98655.66;;;22.51;46.86
50125;BME280;36023;48.670;6.184;2022-09-09T10:17:35;98644.84;;;22.55;47.10
50125;BME280;36023;48.670;6.184;2022-09-09T10:22:47;98653.88;;;22.63;47.07
50125;BME280;36023;48.670;6.184;2022-09-09T10:32:44;98646.56;;;22.78;47.53
50125;BME280;36023;48.670;6.184;2022-09-09T10:40:23;98636.72;;;22.80;47.65
50125;BME280;36023;48.670;6.184;2022-09-09T10:42:56;98629.69;;;22.80;47.82
50125;BME280;36023;48.670;6.184;2022-09-09T10:50:43;98627.63;;;22.84;47.85
50125;BME280;36023;48.670;6.184;2022-09-09T10:55:40;98634.50;;;22.87;47.91
50125;BME280;36023;48.670;6.184;2022-09-09T10:58:23;98632.69;;;22.87;47.67
50125;BME280;36023;48.670;6.184;2022-09-09T11:00:54;98631.75;;;22.88;47.79
50125;BME280;36023;48.670;6.184;2022-09-09T11:03:25;98646.66;;;22.89;47.83
50125;BME280;36023;48.670;6.184;2022-09-09T11:05:53;98641.25;;;22.91;47.61
50125;BME280;36023;48.670;6.184;2022-09-09T11:08:25;98639.31;;;22.93;47.93
50125;BME280;36023;48.670;6.184;2022-09-09T11:13:24;98632.09;;;22.95;47.59
50125;BME280;36023;48.670;6.184;2022-09-09T11:15:53;98621.53;;;22.95;47.48
50125;BME280;36023;48.670;6.184;2022-09-09T11:18:22;98630.22;;;22.97;47.45
50125;BME280;36023;48.670;6.184;2022-09-09T11:20:49;98631.03;;;22.97;47.73
50125;BME280;36023;48.670;6.184;2022-09-09T11:23:21;98617.84;;;22.97;47.48
50125;BME280;36023;48.670;6.184;2022-09-09T11:25:54;98608.81;;;23.00;47.56
50125;BME280;36023;48.670;6.184;2022-09-09T11:33:23;98617.59;;;23.00;47.51
50125;BME280;36023;48.670;6.184;2022-09-09T11:38:19;98613.84;;;23.03;47.42
50125;BME280;36023;48.670;6.184;2022-09-09T11:40:46;98605.84;;;23.04;47.31
50125;BME280;36023;48.670;6.184;2022-09-09T11:43:14;98629.47;;;23.06;47.37
50125;BME280;36023;48.670;6.184;2022-09-09T11:45:43;98622.53;;;23.05;47.47
50125;BME280;36023;48.670;6.184;2022-09-09T11:48:23;98627.69;;;23.06;47.26
50125;BME280;36023;48.670;6.184;2022-09-09T11:51:07;98620.59;;;23.07;47.48
50125;BME280;36023;48.670;6.184;2022-09-09T11:53:35;98620.47;;;23.08;47.31
50125;BME280;36023;48.670;6.184;2022-09-09T11:58:32;98615.91;;;23.11;47.14
50125;BME280;36023;48.670;6.184;2022-09-09T12:00:59;98622.00;;;23.11;47.39
50125;BME280;36023;48.670;6.184;2022-09-09T12:03:41;98625.53;;;23.12;47.04
50125;BME280;36023;48.670;6.184;2022-09-09T12:06:10;98623.72;;;23.12;47.16
50125;BME280;36023;48.670;6.184;2022-09-09T12:08:36;98618.31;;;23.14;47.41
50125;BME280;36023;48.670;6.184;2022-09-09T12:11:02;98626.25;;;23.14;47.08
50125;BME280;36023;48.670;6.184;2022-09-09T12:13:30;98636.94;;;23.12;47.17
50125;BME280;36023;48.670;6.184;2022-09-09T12:15:57;98647.38;;;23.14;47.23
50125;BME280;36023;48.670;6.184;2022-09-09T12:21:27;98647.25;;;23.15;47.23
50125;BME280;36023;48.670;6.184;2022-09-09T12:23:55;98634.88;;;23.16;47.05
50125;BME280;36023;48.670;6.184;2022-09-09T12:26:41;98640.88;;;23.18;47.09
50125;BME280;36023;48.670;6.184;2022-09-09T12:29:23;98633.78;;;23.18;47.23
50125;BME280;36023;48.670;6.184;2022-09-09T12:34:41;98616.88;;;23.21;47.38
50125;BME280;36023;48.670;6.184;2022-09-09T12:39:45;98616.63;;;23.24;47.55
50125;BME280;36023;48.670;6.184;2022-09-09T12:42:16;98612.16;;;23.24;47.16
50125;BME280;36023;48.670;6.184;2022-09-09T12:44:50;98612.16;;;23.24;47.54
50125;BME280;36023;48.670;6.184;2022-09-09T12:47:15;98626.09;;;23.26;47.57
50125;BME280;36023;48.670;6.184;2022-09-09T12:49:41;98629.59;;;23.27;47.27
50125;BME280;36023;48.670;6.184;2022-09-09T12:52:13;98625.16;;;23.27;47.49
50125;BME280;36023;48.670;6.184;2022-09-09T12:54:43;98623.44;;;23.26;47.64
50125;BME280;36023;48.670;6.184;2022-09-09T12:57:13;98614.59;;;23.27;47.39
50125;BME280;36023;48.670;6.184;2022-09-09T12:59:43;98621.53;;;23.28;47.50
50125;BME280;36023;48.670;6.184;2022-09-09T13:02:22;98622.50;;;23.27;47.73
50125;BME280;36023;48.670;6.184;2022-09-09T13:04:48;98623.22;;;23.29;47.53
50125;BME280;36023;48.670;6.184;2022-09-09T13:07:15;98624.06;;;23.30;47.78
50125;BME280;36023;48.670;6.184;2022-09-09T13:09:41;98622.25;;;23.30;47.86
50125;BME280;36023;48.670;6.184;2022-09-09T13:12:11;98624.91;;;23.30;47.51
50125;BME280;36023;48.670;6.184;2022-09-09T13:14:42;98616.97;;;23.30;47.58
50125;BME280;36023;48.670;6.184;2022-09-09T13:17:15;98622.97;;;23.32;47.49
50125;BME280;36023;48.670;6.184;2022-09-09T13:19:43;98620.31;;;23.32;47.44
50125;BME280;36023;48.670;6.184;2022-09-09T13:25:04;98624.66;;;23.33;47.73
50125;BME280;36023;48.670;6.184;2022-09-09T13:27:32;98620.31;;;23.32;47.54
50125;BME280;36023;48.670;6.184;2022-09-09T13:29:59;98621.03;;;23.34;47.38
50125;BME280;36023;48.670;6.184;2022-09-09T13:32:25;98626.22;;;23.36;47.45
50125;BME280;36023;48.670;6.184;2022-09-09T13:34:54;98607.72;;;23.36;47.45
50125;BME280;36023;48.670;6.184;2022-09-09T13:37:26;98613.00;;;23.36;47.56
50125;BME280;36023;48.670;6.184;2022-09-09T13:39:53;98612.88;;;23.38;47.70
50125;BME280;36023;48.670;6.184;2022-09-09T13:42:24;98609.28;;;23.39;47.63
50125;BME280;36023;48.670;6.184;2022-09-09T13:44:51;98605.66;;;23.40;47.78
50125;BME280;36023;48.670;6.184;2022-09-09T13:49:42;98601.94;;;23.42;47.52
50125;BME280;36023;48.670;6.184;2022-09-09T13:52:15;98597.50;;;23.43;47.84
50125;BME280;36023;48.670;6.184;2022-09-09T13:54:42;98585.97;;;23.44;47.66
50125;BME280;36023;48.670;6.184;2022-09-09T13:57:15;98590.41;;;23.43;47.71
50125;BME280;36023;48.670;6.184;2022-09-09T13:59:40;98577.06;;;23.45;47.75
50125;BME280;36023;48.670;6.184;2022-09-09T14:02:07;98584.88;;;23.46;47.91
50125;BME280;36023;48.670;6.184;2022-09-09T14:04:32;98583.06;;;23.47;47.90
50125;BME280;36023;48.670;6.184;2022-09-09T14:07:00;98582.09;;;23.48;47.73
50125;BME280;36023;48.670;6.184;2022-09-09T14:09:26;98585.44;;;23.50;47.76
50125;BME280;36023;48.670;6.184;2022-09-09T14:11:53;98587.16;;;23.51;47.97
50125;BME280;36023;48.670;6.184;2022-09-09T14:14:20;98593.28;;;23.51;47.86
50125;BME280;36023;48.670;6.184;2022-09-09T14:16:46;98590.50;;;23.53;47.93
50125;BME280;36023;48.670;6.184;2022-09-09T14:19:12;98598.44;;;23.53;47.58
50125;BME280;36023;48.670;6.184;2022-09-09T14:21:37;98603.59;;;23.54;47.98
50125;BME280;36023;48.670;6.184;2022-09-09T14:24:03;98588.34;;;23.58;48.18
50125;BME280;36023;48.670;6.184;2022-09-09T14:26:28;98600.38;;;23.62;48.36
50125;BME280;36023;48.670;6.184;2022-09-09T14:28:55;98600.09;;;23.65;48.56
50125;BME280;36023;48.670;6.184;2022-09-09T14:31:21;98589.28;;;23.68;48.67
50125;BME280;36023;48.670;6.184;2022-09-09T14:33:47;98593.34;;;23.72;49.00
50125;BME280;36023;48.670;6.184;2022-09-09T14:36:13;98594.94;;;23.75;49.45
50125;BME280;36023;48.670;6.184;2022-09-09T14:38:38;98591.19;;;23.77;49.43
50125;BME280;36023;48.670;6.184;2022-09-09T14:41:09;98597.19;;;23.79;49.77
50125;BME280;36023;48.670;6.184;2022-09-09T14:43:37;98595.28;;;23.81;50.40
50125;BME280;36023;48.670;6.184;2022-09-09T14:46:09;98598.63;;;23.83;50.71
50125;BME280;36023;48.670;6.184;2022-09-09T14:48:35;98595.97;;;23.83;50.61
50125;BME280;36023;48.670;6.184;2022-09-09T14:53:32;98595.28;;;23.81;50.81
50125;BME280;36023;48.670;6.184;2022-09-09T14:56:08;98590.91;;;23.80;51.02
50125;BME280;36023;48.670;6.184;2022-09-09T14:58:34;98593.69;;;23.79;50.72
50125;BME280;36023;48.670;6.184;2022-09-09T15:01:13;98598.00;;;23.80;50.89
50125;BME280;36023;48.670;6.184;2022-09-09T15:03:40;98604.28;;;23.79;50.71
50125;BME280;36023;48.670;6.184;2022-09-09T15:06:10;98598.16;;;23.78;50.74
50125;BME280;36023;48.670;6.184;2022-09-09T15:08:36;98597.31;;;23.78;50.72
50125;BME280;36023;48.670;6.184;2022-09-09T15:11:03;98596.47;;;23.77;50.74